sensor_id;sensor_type;location;lat;lon;timestamp;pressure;altitude;pressure_sealevel;temperature
40968;BMP280;57377;45.130;6.038;2023-05-10T00:02:22;92454.88;;;14.17
40968;BMP280;57377;45.130;6.038;2023-05-10T00:04:48;92454.25;;;13.86
40968;BMP280;57377;45.130;6.038;2023-05-10T00:07:13;92447.94;;;14.04
40968;BMP280;57377;45.130;6.038;2023-05-10T00:09:38;92447.03;;;14.09
40968;BMP280;57377;45.130;6.038;2023-05-10T00:12:05;92474.25;;;13.99
40968;BMP280;57377;45.130;6.038;2023-05-10T00:14:30;92462.41;;;13.93
40968;BMP280;57377;45.130;6.038;2023-05-10T00:16:56;92452.44;;;14.12
40968;BMP280;57377;45.130;6.038;2023-05-10T00:19:21;92456.59;;;14.21
40968;BMP280;57377;45.130;6.038;2023-05-10T00:21:47;92459.47;;;14.37
40968;BMP280;57377;45.130;6.038;2023-05-10T00:24:12;92461.63;;;14.35
40968;BMP280;57377;45.130;6.038;2023-05-10T00:26:37;92486.56;;;13.90
40968;BMP280;57377;45.130;6.038;2023-05-10T00:29:03;92484.81;;;13.77
40968;BMP280;57377;45.130;6.038;2023-05-10T00:31:28;92507.44;;;13.82
40968;BMP280;57377;45.130;6.038;2023-05-10T00:33:54;92505.44;;;13.79
40968;BMP280;57377;45.130;6.038;2023-05-10T00:36:19;92527.28;;;13.66
40968;BMP280;57377;45.130;6.038;2023-05-10T00:38:45;92504.44;;;14.05
40968;BMP280;57377;45.130;6.038;2023-05-10T00:41:11;92511.34;;;14.18
40968;BMP280;57377;45.130;6.038;2023-05-10T00:43:36;92505.53;;;14.12
40968;BMP280;57377;45.130;6.038;2023-05-10T00:46:02;92503.53;;;14.10
40968;BMP280;57377;45.130;6.038;2023-05-10T00:48:28;92498.06;;;13.81
40968;BMP280;57377;45.130;6.038;2023-05-10T00:50:54;92516.22;;;13.86
40968;BMP280;57377;45.130;6.038;2023-05-10T00:53:19;92504.84;;;13.74
40968;BMP280;57377;45.130;6.038;2023-05-10T00:55:45;92489.59;;;13.76
40968;BMP280;57377;45.130;6.038;2023-05-10T00:58:10;92483.13;;;13.65
40968;BMP280;57377;45.130;6.038;2023-05-10T01:00:36;92465.44;;;13.62
40968;BMP280;57377;45.130;6.038;2023-05-10T01:03:02;92468.53;;;13.72
40968;BMP280;57377;45.130;6.038;2023-05-10T01:05:28;92484.03;;;13.52
40968;BMP280;57377;45.130;6.038;2023-05-10T01:07:53;92467.44;;;13.65
40968;BMP280;57377;45.130;6.038;2023-05-10T01:10:18;92485.63;;;13.86
40968;BMP280;57377;45.130;6.038;2023-05-10T01:12:46;92484.72;;;13.99
40968;BMP280;57377;45.130;6.038;2023-05-10T01:15:12;92480.59;;;13.98
40968;BMP280;57377;45.130;6.038;2023-05-10T01:17:40;92489.91;;;13.82
40968;BMP280;57377;45.130;6.038;2023-05-10T01:20:07;92481.13;;;13.62
40968;BMP280;57377;45.130;6.038;2023-05-10T01:36:05;92475.31;;;13.81
40968;BMP280;57377;45.130;6.038;2023-05-10T01:38:42;92481.75;;;13.76
40968;BMP280;57377;45.130;6.038;2023-05-10T01:46:41;92486.56;;;13.27
40968;BMP280;57377;45.130;6.038;2023-05-10T01:49:23;92487.75;;;13.76
40968;BMP280;57377;45.130;6.038;2023-05-10T01:51:52;92485.88;;;13.68
40968;BMP280;57377;45.130;6.038;2023-05-10T01:54:21;92477.31;;;13.84
40968;BMP280;57377;45.130;6.038;2023-05-10T01:56:55;92488.16;;;13.45
40968;BMP280;57377;45.130;6.038;2023-05-10T01:59:28;92475.69;;;13.33
40968;BMP280;57377;45.130;6.038;2023-05-10T02:01:57;92474.34;;;13.06
40968;BMP280;57377;45.130;6.038;2023-05-10T02:04:24;92479.28;;;13.15
40968;BMP280;57377;45.130;6.038;2023-05-10T02:06:51;92470.41;;;13.16
40968;BMP280;57377;45.130;6.038;2023-05-10T02:09:19;92472.13;;;13.29
40968;BMP280;57377;45.130;6.038;2023-05-10T02:11:46;92477.00;;;13.14
40968;BMP280;57377;45.130;6.038;2023-05-10T02:14:14;92477.16;;;13.17
40968;BMP280;57377;45.130;6.038;2023-05-10T02:16:41;92467.75;;;13.72
40968;BMP280;57377;45.130;6.038;2023-05-10T02:19:08;92478.47;;;13.45
40968;BMP280;57377;45.130;6.038;2023-05-10T02:21:35;92468.13;;;13.32
40968;BMP280;57377;45.130;6.038;2023-05-10T02:24:03;92477.75;;;13.14
40968;BMP280;57377;45.130;6.038;2023-05-10T02:26:29;92460.44;;;13.27
40968;BMP280;57377;45.130;6.038;2023-05-10T02:28:57;92472.25;;;13.24
40968;BMP280;57377;45.130;6.038;2023-05-10T02:31:24;92479.34;;;13.24
40968;BMP280;57377;45.130;6.038;2023-05-10T02:33:50;92459.75;;;13.60
40968;BMP280;57377;45.130;6.038;2023-05-10T02:36:16;92463.75;;;13.66
40968;BMP280;57377;45.130;6.038;2023-05-10T02:38:43;92468.94;;;13.49
40968;BMP280;57377;45.130;6.038;2023-05-10T02:41:09;92454.34;;;13.40
40968;BMP280;57377;45.130;6.038;2023-05-10T02:43:37;92454.38;;;13.10
40968;BMP280;57377;45.130;6.038;2023-05-10T02:46:04;92466.41;;;13.19
40968;BMP280;57377;45.130;6.038;2023-05-10T02:48:30;92460.94;;;13.54
40968;BMP280;57377;45.130;6.038;2023-05-10T02:51:00;92455.75;;;13.62
40968;BMP280;57377;45.130;6.038;2023-05-10T02:53:33;92456.97;;;13.73
40968;BMP280;57377;45.130;6.038;2023-05-10T02:56:03;92459.03;;;13.21
40968;BMP280;57377;45.130;6.038;2023-05-10T02:58:29;92462.03;;;12.98
40968;BMP280;57377;45.130;6.038;2023-05-10T03:00:54;92445.38;;;13.32
40968;BMP280;57377;45.130;6.038;2023-05-10T03:03:20;92452.88;;;13.09
40968;BMP280;57377;45.130;6.038;2023-05-10T03:05:46;92452.53;;;13.02
40968;BMP280;57377;45.130;6.038;2023-05-10T03:08:11;92453.53;;;13.31
40968;BMP280;57377;45.130;6.038;2023-05-10T03:10:42;92459.34;;;13.19
40968;BMP280;57377;45.130;6.038;2023-05-10T03:13:29;92441.22;;;13.23
40968;BMP280;57377;45.130;6.038;2023-05-10T03:16:07;92449.94;;;13.10
40968;BMP280;57377;45.130;6.038;2023-05-10T03:18:55;92428.28;;;13.10
40968;BMP280;57377;45.130;6.038;2023-05-10T03:21:22;92429.56;;;13.20
40968;BMP280;57377;45.130;6.038;2023-05-10T03:23:52;92435.13;;;13.52
40968;BMP280;57377;45.130;6.038;2023-05-10T03:26:24;92437.69;;;13.27
40968;BMP280;57377;45.130;6.038;2023-05-10T03:28:51;92434.53;;;13.00
40968;BMP280;57377;45.130;6.038;2023-05-10T03:31:18;92423.56;;;13.37
40968;BMP280;57377;45.130;6.038;2023-05-10T03:33:51;92429.84;;;13.27
40968;BMP280;57377;45.130;6.038;2023-05-10T03:36:17;92446.50;;;13.48
40968;BMP280;57377;45.130;6.038;2023-05-10T03:38:42;92448.56;;;13.13
40968;BMP280;57377;45.130;6.038;2023-05-10T03:41:08;92425.84;;;13.21
40968;BMP280;57377;45.130;6.038;2023-05-10T03:43:33;92436.78;;;13.23
40968;BMP280;57377;45.130;6.038;2023-05-10T03:46:01;92427.53;;;12.79
40968;BMP280;57377;45.130;6.038;2023-05-10T03:48:27;92423.94;;;13.05
40968;BMP280;57377;45.130;6.038;2023-05-10T03:50:52;92428.22;;;12.93
40968;BMP280;57377;45.130;6.038;2023-05-10T03:53:17;92427.97;;;13.11
40968;BMP280;57377;45.130;6.038;2023-05-10T03:55:43;92434.38;;;12.97
40968;BMP280;57377;45.130;6.038;2023-05-10T03:58:10;92421.81;;;13.15
40968;BMP280;57377;45.130;6.038;2023-05-10T04:00:36;92423.63;;;13.62
40968;BMP280;57377;45.130;6.038;2023-05-10T04:03:02;92437.59;;;13.66
40968;BMP280;57377;45.130;6.038;2023-05-10T04:05:27;92420.69;;;13.72
40968;BMP280;57377;45.130;6.038;2023-05-10T04:07:53;92420.38;;;13.48
40968;BMP280;57377;45.130;6.038;2023-05-10T04:10:18;92420.63;;;13.21
40968;BMP280;57377;45.130;6.038;2023-05-10T04:12:44;92412.59;;;13.10
40968;BMP280;57377;45.130;6.038;2023-05-10T04:15:12;92423.00;;;12.93
40968;BMP280;57377;45.130;6.038;2023-05-10T04:17:38;92416.13;;;13.05
40968;BMP280;57377;45.130;6.038;2023-05-10T04:20:03;92427.00;;;12.99
40968;BMP280;57377;45.130;6.038;2023-05-10T04:22:29;92421.09;;;13.32
40968;BMP280;57377;45.130;6.038;2023-05-10T04:24:55;92414.06;;;13.41
40968;BMP280;57377;45.130;6.038;2023-05-10T04:27:21;92424.97;;;13.43
40968;BMP280;57377;45.130;6.038;2023-05-10T04:29:46;92413.13;;;13.28
40968;BMP280;57377;45.130;6.038;2023-05-10T04:32:34;92412.81;;;13.38
40968;BMP280;57377;45.130;6.038;2023-05-10T04:38:29;92419.69;;;13.17
40968;BMP280;57377;45.130;6.038;2023-05-10T04:41:06;92440.53;;;13.01
40968;BMP280;57377;45.130;6.038;2023-05-10T04:43:32;92423.75;;;12.85
40968;BMP280;57377;45.130;6.038;2023-05-10T04:45:58;92439.28;;;12.98
40968;BMP280;57377;45.130;6.038;2023-05-10T04:48:23;92420.81;;;13.42
40968;BMP280;57377;45.130;6.038;2023-05-10T04:50:49;92422.22;;;13.56
40968;BMP280;57377;45.130;6.038;2023-05-10T04:53:15;92428.06;;;13.53
40968;BMP280;57377;45.130;6.038;2023-05-10T04:55:43;92421.72;;;13.29
40968;BMP280;57377;45.130;6.038;2023-05-10T04:58:08;92426.66;;;13.39
40968;BMP280;57377;45.130;6.038;2023-05-10T05:00:34;92448.06;;;13.02
40968;BMP280;57377;45.130;6.038;2023-05-10T05:02:59;92434.88;;;13.15
40968;BMP280;57377;45.130;6.038;2023-05-10T05:05:24;92429.69;;;13.24
40968;BMP280;57377;45.130;6.038;2023-05-10T05:07:50;92421.56;;;13.25
40968;BMP280;57377;45.130;6.038;2023-05-10T05:10:16;92427.25;;;13.36
40968;BMP280;57377;45.130;6.038;2023-05-10T05:12:41;92424.06;;;13.47
40968;BMP280;57377;45.130;6.038;2023-05-10T05:15:07;92418.22;;;13.58
40968;BMP280;57377;45.130;6.038;2023-05-10T05:17:34;92421.44;;;13.55
40968;BMP280;57377;45.130;6.038;2023-05-10T05:20:00;92426.53;;;13.52
40968;BMP280;57377;45.130;6.038;2023-05-10T05:22:25;92425.75;;;13.68
40968;BMP280;57377;45.130;6.038;2023-05-10T05:24:53;92420.94;;;13.28
40968;BMP280;57377;45.130;6.038;2023-05-10T05:27:19;92416.06;;;13.52
40968;BMP280;57377;45.130;6.038;2023-05-10T05:29:47;92426.56;;;13.69
40968;BMP280;57377;45.130;6.038;2023-05-10T05:32:19;92429.75;;;13.66
40968;BMP280;57377;45.130;6.038;2023-05-10T05:34:50;92420.09;;;13.66
40968;BMP280;57377;45.130;6.038;2023-05-10T05:37:17;92424.09;;;13.64
40968;BMP280;57377;45.130;6.038;2023-05-10T05:39:43;92423.16;;;13.68
40968;BMP280;57377;45.130;6.038;2023-05-10T05:42:12;92437.91;;;13.73
40968;BMP280;57377;45.130;6.038;2023-05-10T05:44:38;92421.78;;;13.79
40968;BMP280;57377;45.130;6.038;2023-05-10T05:47:05;92424.88;;;13.81
40968;BMP280;57377;45.130;6.038;2023-05-10T05:49:30;92436.84;;;13.74
40968;BMP280;57377;45.130;6.038;2023-05-10T05:52:03;92414.38;;;13.73
40968;BMP280;57377;45.130;6.038;2023-05-10T05:54:29;92440.06;;;13.71
40968;BMP280;57377;45.130;6.038;2023-05-10T05:56:58;92439.31;;;13.78
40968;BMP280;57377;45.130;6.038;2023-05-10T05:59:24;92431.00;;;13.68
40968;BMP280;57377;45.130;6.038;2023-05-10T06:01:52;92435.72;;;13.41
40968;BMP280;57377;45.130;6.038;2023-05-10T06:04:18;92436.16;;;13.35
40968;BMP280;57377;45.130;6.038;2023-05-10T06:06:44;92437.25;;;13.34
40968;BMP280;57377;45.130;6.038;2023-05-10T06:09:10;92434.81;;;13.54
40968;BMP280;57377;45.130;6.038;2023-05-10T06:11:36;92426.84;;;13.76
40968;BMP280;57377;45.130;6.038;2023-05-10T06:14:02;92428.09;;;13.86
40968;BMP280;57377;45.130;6.038;2023-05-10T06:16:29;92438.25;;;13.96
40968;BMP280;57377;45.130;6.038;2023-05-10T06:18:55;92440.84;;;13.79
40968;BMP280;57377;45.130;6.038;2023-05-10T06:21:20;92429.59;;;13.54
40968;BMP280;57377;45.130;6.038;2023-05-10T06:23:46;92427.56;;;13.34
40968;BMP280;57377;45.130;6.038;2023-05-10T06:26:11;92426.94;;;13.20
40968;BMP280;57377;45.130;6.038;2023-05-10T06:28:37;92425.59;;;12.93
40968;BMP280;57377;45.130;6.038;2023-05-10T06:31:06;92426.22;;;13.62
40968;BMP280;57377;45.130;6.038;2023-05-10T06:33:32;92436.59;;;13.20
40968;BMP280;57377;45.130;6.038;2023-05-10T06:35:57;92422.34;;;13.34
40968;BMP280;57377;45.130;6.038;2023-05-10T06:38:23;92425.56;;;13.31
40968;BMP280;57377;45.130;6.038;2023-05-10T06:40:48;92422.50;;;13.46
40968;BMP280;57377;45.130;6.038;2023-05-10T06:43:14;92427.44;;;13.56
40968;BMP280;57377;45.130;6.038;2023-05-10T06:45:39;92424.31;;;13.20
40968;BMP280;57377;45.130;6.038;2023-05-10T06:48:06;92422.63;;;13.24
40968;BMP280;57377;45.130;6.038;2023-05-10T06:50:31;92416.16;;;13.22
40968;BMP280;57377;45.130;6.038;2023-05-10T06:52:57;92426.75;;;13.09
40968;BMP280;57377;45.130;6.038;2023-05-10T06:55:23;92430.03;;;13.39
40968;BMP280;57377;45.130;6.038;2023-05-10T06:57:48;92423.44;;;13.58
40968;BMP280;57377;45.130;6.038;2023-05-10T07:00:14;92422.22;;;13.56
40968;BMP280;57377;45.130;6.038;2023-05-10T07:02:39;92436.53;;;13.67
40968;BMP280;57377;45.130;6.038;2023-05-10T07:05:06;92437.63;;;13.02
40968;BMP280;57377;45.130;6.038;2023-05-10T07:07:31;92451.34;;;13.16
40968;BMP280;57377;45.130;6.038;2023-05-10T07:09:57;92434.31;;;13.18
40968;BMP280;57377;45.130;6.038;2023-05-10T07:12:23;92432.50;;;13.36
40968;BMP280;57377;45.130;6.038;2023-05-10T07:14:48;92437.47;;;13.07
40968;BMP280;57377;45.130;6.038;2023-05-10T07:17:13;92426.75;;;13.09
40968;BMP280;57377;45.130;6.038;2023-05-10T07:19:39;92456.94;;;13.40
40968;BMP280;57377;45.130;6.038;2023-05-10T07:22:04;92441.34;;;13.18
40968;BMP280;57377;45.130;6.038;2023-05-10T07:24:30;92461.69;;;12.91
40968;BMP280;57377;45.130;6.038;2023-05-10T07:26:56;92447.22;;;13.32
40968;BMP280;57377;45.130;6.038;2023-05-10T07:29:21;92465.44;;;13.07
40968;BMP280;57377;45.130;6.038;2023-05-10T07:31:47;92446.47;;;13.31
40968;BMP280;57377;45.130;6.038;2023-05-10T07:34:12;92448.34;;;13.56
40968;BMP280;57377;45.130;6.038;2023-05-10T07:36:37;92444.09;;;13.13
40968;BMP280;57377;45.130;6.038;2023-05-10T07:39:03;92454.16;;;13.36
40968;BMP280;57377;45.130;6.038;2023-05-10T07:41:29;92460.00;;;13.33
40968;BMP280;57377;45.130;6.038;2023-05-10T07:43:54;92464.91;;;13.26
40968;BMP280;57377;45.130;6.038;2023-05-10T07:46:19;92475.19;;;13.31
40968;BMP280;57377;45.130;6.038;2023-05-10T07:48:45;92459.63;;;13.18
40968;BMP280;57377;45.130;6.038;2023-05-10T07:51:11;92454.94;;;12.90
40968;BMP280;57377;45.130;6.038;2023-05-10T07:53:37;92477.66;;;13.28
40968;BMP280;57377;45.130;6.038;2023-05-10T07:58:45;92446.94;;;13.42
40968;BMP280;57377;45.130;6.038;2023-05-10T08:01:10;92448.84;;;13.66
40968;BMP280;57377;45.130;6.038;2023-05-10T08:03:36;92444.38;;;13.67
40968;BMP280;57377;45.130;6.038;2023-05-10T08:06:01;92454.69;;;13.72
40968;BMP280;57377;45.130;6.038;2023-05-10T08:08:27;92444.44;;;14.00
40968;BMP280;57377;45.130;6.038;2023-05-10T08:10:52;92439.16;;;13.92
40968;BMP280;57377;45.130;6.038;2023-05-10T08:13:18;92443.44;;;13.63
40968;BMP280;57377;45.130;6.038;2023-05-10T08:15:43;92451.16;;;13.84
40968;BMP280;57377;45.130;6.038;2023-05-10T08:18:08;92446.69;;;13.77
40968;BMP280;57377;45.130;6.038;2023-05-10T08:20:33;92435.34;;;13.98
40968;BMP280;57377;45.130;6.038;2023-05-10T08:22:59;92444.56;;;13.95
40968;BMP280;57377;45.130;6.038;2023-05-10T08:25:24;92450.66;;;13.49
40968;BMP280;57377;45.130;6.038;2023-05-10T08:27:50;92447.59;;;13.55
40968;BMP280;57377;45.130;6.038;2023-05-10T08:30:15;92456.03;;;13.61
40968;BMP280;57377;45.130;6.038;2023-05-10T08:32:41;92447.09;;;13.37
40968;BMP280;57377;45.130;6.038;2023-05-10T08:35:06;92451.31;;;13.96
40968;BMP280;57377;45.130;6.038;2023-05-10T08:37:31;92442.09;;;13.90
40968;BMP280;57377;45.130;6.038;2023-05-10T08:39:58;92457.94;;;13.94
40968;BMP280;57377;45.130;6.038;2023-05-10T08:42:25;92443.91;;;14.40
40968;BMP280;57377;45.130;6.038;2023-05-10T08:44:54;92465.91;;;14.47
40968;BMP280;57377;45.130;6.038;2023-05-10T08:47:20;92446.69;;;14.43
40968;BMP280;57377;45.130;6.038;2023-05-10T08:49:47;92448.72;;;14.13
40968;BMP280;57377;45.130;6.038;2023-05-10T08:52:16;92452.41;;;14.45
40968;BMP280;57377;45.130;6.038;2023-05-10T08:54:43;92445.44;;;14.58
40968;BMP280;57377;45.130;6.038;2023-05-10T08:57:09;92462.63;;;14.84
40968;BMP280;57377;45.130;6.038;2023-05-10T08:59:35;92454.31;;;14.74
40968;BMP280;57377;45.130;6.038;2023-05-10T09:02:01;92447.59;;;14.56
40968;BMP280;57377;45.130;6.038;2023-05-10T09:04:29;92464.28;;;14.26
40968;BMP280;57377;45.130;6.038;2023-05-10T09:06:54;92468.44;;;14.36
40968;BMP280;57377;45.130;6.038;2023-05-10T09:09:21;92467.81;;;14.39
40968;BMP280;57377;45.130;6.038;2023-05-10T09:11:47;92446.19;;;14.58
40968;BMP280;57377;45.130;6.038;2023-05-10T09:14:13;92448.28;;;14.90
40968;BMP280;57377;45.130;6.038;2023-05-10T09:16:40;92440.75;;;15.25
40968;BMP280;57377;45.130;6.038;2023-05-10T09:19:05;92451.72;;;15.56
40968;BMP280;57377;45.130;6.038;2023-05-10T09:21:32;92442.25;;;15.63
40968;BMP280;57377;45.130;6.038;2023-05-10T09:24:03;92429.59;;;15.85
40968;BMP280;57377;45.130;6.038;2023-05-10T09:26:29;92447.88;;;15.73
40968;BMP280;57377;45.130;6.038;2023-05-10T09:28:56;92458.06;;;15.75
40968;BMP280;57377;45.130;6.038;2023-05-10T09:31:22;92416.72;;;16.12
40968;BMP280;57377;45.130;6.038;2023-05-10T09:33:49;92419.63;;;15.99
40968;BMP280;57377;45.130;6.038;2023-05-10T09:36:15;92422.16;;;16.07
40968;BMP280;57377;45.130;6.038;2023-05-10T09:38:48;92431.63;;;16.00
40968;BMP280;57377;45.130;6.038;2023-05-10T09:41:21;92420.31;;;16.08
40968;BMP280;57377;45.130;6.038;2023-05-10T09:43:47;92429.50;;;16.54
40968;BMP280;57377;45.130;6.038;2023-05-10T09:46:14;92427.75;;;16.58
40968;BMP280;57377;45.130;6.038;2023-05-10T09:48:47;92421.94;;;16.53
40968;BMP280;57377;45.130;6.038;2023-05-10T09:51:22;92431.88;;;16.47
40968;BMP280;57377;45.130;6.038;2023-05-10T09:53:49;92436.72;;;15.85
40968;BMP280;57377;45.130;6.038;2023-05-10T09:56:34;92437.28;;;15.90
40968;BMP280;57377;45.130;6.038;2023-05-10T09:59:04;92437.72;;;15.92
40968;BMP280;57377;45.130;6.038;2023-05-10T10:01:29;92426.66;;;16.07
40968;BMP280;57377;45.130;6.038;2023-05-10T10:03:56;92434.00;;;16.34
40968;BMP280;57377;45.130;6.038;2023-05-10T10:06:23;92433.81;;;16.38
40968;BMP280;57377;45.130;6.038;2023-05-10T10:08:50;92428.06;;;16.25
40968;BMP280;57377;45.130;6.038;2023-05-10T10:11:15;92434.31;;;16.52
40968;BMP280;57377;45.130;6.038;2023-05-10T10:13:41;92415.97;;;16.64
40968;BMP280;57377;45.130;6.038;2023-05-10T10:16:08;92423.09;;;16.75
40968;BMP280;57377;45.130;6.038;2023-05-10T10:18:36;92426.53;;;16.88
40968;BMP280;57377;45.130;6.038;2023-05-10T10:21:05;92441.50;;;16.87
40968;BMP280;57377;45.130;6.038;2023-05-10T10:23:31;92425.88;;;17.02
40968;BMP280;57377;45.130;6.038;2023-05-10T10:25:57;92412.38;;;16.69
40968;BMP280;57377;45.130;6.038;2023-05-10T10:28:29;92418.31;;;16.89
40968;BMP280;57377;45.130;6.038;2023-05-10T10:31:01;92415.66;;;16.89
40968;BMP280;57377;45.130;6.038;2023-05-10T10:36:09;92427.91;;;16.01
40968;BMP280;57377;45.130;6.038;2023-05-10T10:41:33;92410.75;;;16.76
40968;BMP280;57377;45.130;6.038;2023-05-10T10:47:06;92416.00;;;17.00
40968;BMP280;57377;45.130;6.038;2023-05-10T10:52:27;92416.88;;;16.92
40968;BMP280;57377;45.130;6.038;2023-05-10T10:54:59;92419.84;;;16.90
40968;BMP280;57377;45.130;6.038;2023-05-10T10:57:26;92395.47;;;17.25
40968;BMP280;57377;45.130;6.038;2023-05-10T10:59:54;92396.31;;;17.05
40968;BMP280;57377;45.130;6.038;2023-05-10T11:02:44;92392.56;;;16.95
40968;BMP280;57377;45.130;6.038;2023-05-10T11:07:55;92406.69;;;17.02
40968;BMP280;57377;45.130;6.038;2023-05-10T11:10:24;92396.00;;;16.95
40968;BMP280;57377;45.130;6.038;2023-05-10T11:13:00;92412.81;;;16.82
40968;BMP280;57377;45.130;6.038;2023-05-10T11:15:33;92397.38;;;17.04
40968;BMP280;57377;45.130;6.038;2023-05-10T11:18:00;92392.53;;;17.15
40968;BMP280;57377;45.130;6.038;2023-05-10T11:20:42;92412.75;;;16.59
40968;BMP280;57377;45.130;6.038;2023-05-10T11:23:12;92399.59;;;16.47
40968;BMP280;57377;45.130;6.038;2023-05-10T11:25:42;92414.13;;;16.33
40968;BMP280;57377;45.130;6.038;2023-05-10T11:28:09;92426.94;;;16.46
40968;BMP280;57377;45.130;6.038;2023-05-10T11:30:36;92399.91;;;15.93
40968;BMP280;57377;45.130;6.038;2023-05-10T11:33:02;92411.81;;;16.11
40968;BMP280;57377;45.130;6.038;2023-05-10T11:35:27;92413.72;;;16.42
40968;BMP280;57377;45.130;6.038;2023-05-10T11:37:53;92440.22;;;16.09
40968;BMP280;57377;45.130;6.038;2023-05-10T11:40:18;92420.28;;;15.19
40968;BMP280;57377;45.130;6.038;2023-05-10T11:42:46;92423.56;;;16.05
40968;BMP280;57377;45.130;6.038;2023-05-10T11:45:11;92407.06;;;16.25
40968;BMP280;57377;45.130;6.038;2023-05-10T11:47:37;92423.22;;;16.15
40968;BMP280;57377;45.130;6.038;2023-05-10T11:50:05;92417.50;;;15.73
40968;BMP280;57377;45.130;6.038;2023-05-10T11:52:35;92426.53;;;15.83
40968;BMP280;57377;45.130;6.038;2023-05-10T11:55:01;92412.38;;;15.96
40968;BMP280;57377;45.130;6.038;2023-05-10T11:57:27;92416.13;;;15.46
40968;BMP280;57377;45.130;6.038;2023-05-10T11:59:54;92409.88;;;15.79
40968;BMP280;57377;45.130;6.038;2023-05-10T12:02:20;92438.09;;;16.03
40968;BMP280;57377;45.130;6.038;2023-05-10T12:04:46;92409.34;;;16.06
40968;BMP280;57377;45.130;6.038;2023-05-10T12:07:11;92410.78;;;16.24
40968;BMP280;57377;45.130;6.038;2023-05-10T12:09:37;92398.91;;;16.38
40968;BMP280;57377;45.130;6.038;2023-05-10T12:12:02;92393.22;;;16.36
40968;BMP280;57377;45.130;6.038;2023-05-10T12:14:28;92400.09;;;15.88
40968;BMP280;57377;45.130;6.038;2023-05-10T12:17:01;92394.19;;;16.11
40968;BMP280;57377;45.130;6.038;2023-05-10T12:19:26;92403.47;;;16.09
40968;BMP280;57377;45.130;6.038;2023-05-10T12:21:52;92401.16;;;16.07
40968;BMP280;57377;45.130;6.038;2023-05-10T12:24:17;92412.00;;;16.58
40968;BMP280;57377;45.130;6.038;2023-05-10T12:26:45;92409.88;;;16.40
40968;BMP280;57377;45.130;6.038;2023-05-10T12:29:19;92418.00;;;16.59
40968;BMP280;57377;45.130;6.038;2023-05-10T12:31:55;92405.28;;;16.17
40968;BMP280;57377;45.130;6.038;2023-05-10T12:34:30;92395.81;;;16.68
40968;BMP280;57377;45.130;6.038;2023-05-10T12:36:56;92404.16;;;16.82
40968;BMP280;57377;45.130;6.038;2023-05-10T12:39:21;92408.09;;;16.64
40968;BMP280;57377;45.130;6.038;2023-05-10T12:41:47;92377.47;;;17.03
40968;BMP280;57377;45.130;6.038;2023-05-10T12:44:12;92366.06;;;17.00
40968;BMP280;57377;45.130;6.038;2023-05-10T12:46:38;92388.72;;;16.80
40968;BMP280;57377;45.130;6.038;2023-05-10T12:49:03;92362.97;;;16.62
40968;BMP280;57377;45.130;6.038;2023-05-10T12:51:28;92381.03;;;16.75
40968;BMP280;57377;45.130;6.038;2023-05-10T12:53:54;92365.59;;;16.50
40968;BMP280;57377;45.130;6.038;2023-05-10T12:56:19;92377.03;;;16.34
40968;BMP280;57377;45.130;6.038;2023-05-10T12:58:45;92371.47;;;16.36
40968;BMP280;57377;45.130;6.038;2023-05-10T13:01:14;92363.38;;;16.40
40968;BMP280;57377;45.130;6.038;2023-05-10T13:03:39;92368.31;;;16.54
40968;BMP280;57377;45.130;6.038;2023-05-10T13:06:05;92372.22;;;16.36
40968;BMP280;57377;45.130;6.038;2023-05-10T13:08:31;92371.22;;;16.29
40968;BMP280;57377;45.130;6.038;2023-05-10T13:10:59;92372.50;;;16.03
40968;BMP280;57377;45.130;6.038;2023-05-10T13:13:25;92375.56;;;16.25
40968;BMP280;57377;45.130;6.038;2023-05-10T13:15:50;92371.72;;;16.22
40968;BMP280;57377;45.130;6.038;2023-05-10T13:18:15;92378.13;;;16.13
40968;BMP280;57377;45.130;6.038;2023-05-10T13:20:41;92373.19;;;16.32
40968;BMP280;57377;45.130;6.038;2023-05-10T13:23:08;92376.34;;;16.05
40968;BMP280;57377;45.130;6.038;2023-05-10T13:25:33;92358.56;;;15.90
40968;BMP280;57377;45.130;6.038;2023-05-10T13:27:59;92358.16;;;16.00
40968;BMP280;57377;45.130;6.038;2023-05-10T13:30:24;92363.53;;;16.24
40968;BMP280;57377;45.130;6.038;2023-05-10T13:32:50;92379.41;;;16.07
40968;BMP280;57377;45.130;6.038;2023-05-10T13:35:15;92376.03;;;15.86
40968;BMP280;57377;45.130;6.038;2023-05-10T13:37:41;92375.66;;;16.16
40968;BMP280;57377;45.130;6.038;2023-05-10T13:40:07;92364.06;;;15.97
40968;BMP280;57377;45.130;6.038;2023-05-10T13:42:32;92393.75;;;16.09
40968;BMP280;57377;45.130;6.038;2023-05-10T13:44:59;92382.69;;;16.04
40968;BMP280;57377;45.130;6.038;2023-05-10T13:47:25;92398.44;;;16.04
40968;BMP280;57377;45.130;6.038;2023-05-10T13:49:50;92382.56;;;15.80
40968;BMP280;57377;45.130;6.038;2023-05-10T13:52:16;92371.53;;;16.07
40968;BMP280;57377;45.130;6.038;2023-05-10T13:54:41;92371.31;;;15.80
40968;BMP280;57377;45.130;6.038;2023-05-10T13:57:07;92379.66;;;15.33
40968;BMP280;57377;45.130;6.038;2023-05-10T13:59:32;92380.56;;;15.57
40968;BMP280;57377;45.130;6.038;2023-05-10T14:01:58;92365.78;;;15.93
40968;BMP280;57377;45.130;6.038;2023-05-10T14:04:24;92374.91;;;16.28
40968;BMP280;57377;45.130;6.038;2023-05-10T14:06:50;92373.47;;;16.50
40968;BMP280;57377;45.130;6.038;2023-05-10T14:09:16;92375.81;;;16.32
40968;BMP280;57377;45.130;6.038;2023-05-10T14:11:41;92378.00;;;15.89
40968;BMP280;57377;45.130;6.038;2023-05-10T14:14:09;92366.13;;;15.92
40968;BMP280;57377;45.130;6.038;2023-05-10T14:16:34;92374.03;;;16.24
40968;BMP280;57377;45.130;6.038;2023-05-10T14:19:00;92365.66;;;16.42
40968;BMP280;57377;45.130;6.038;2023-05-10T14:21:25;92350.13;;;16.49
40968;BMP280;57377;45.130;6.038;2023-05-10T14:23:50;92369.88;;;16.03
40968;BMP280;57377;45.130;6.038;2023-05-10T14:26:16;92375.69;;;16.28
40968;BMP280;57377;45.130;6.038;2023-05-10T14:28:41;92354.94;;;16.47
40968;BMP280;57377;45.130;6.038;2023-05-10T14:31:07;92349.16;;;16.53
40968;BMP280;57377;45.130;6.038;2023-05-10T14:33:32;92346.72;;;16.37
40968;BMP280;57377;45.130;6.038;2023-05-10T14:35:57;92357.22;;;16.37
40968;BMP280;57377;45.130;6.038;2023-05-10T14:38:23;92359.16;;;16.28
40968;BMP280;57377;45.130;6.038;2023-05-10T14:40:48;92368.72;;;16.44
40968;BMP280;57377;45.130;6.038;2023-05-10T14:43:14;92368.16;;;16.06
40968;BMP280;57377;45.130;6.038;2023-05-10T14:45:40;92362.81;;;16.47
40968;BMP280;57377;45.130;6.038;2023-05-10T14:48:06;92362.44;;;16.25